createdAt,value
2018-07-23T00:01:33.074Z,100.00
2018-07-23T00:04:01.385Z,100.00
2018-07-23T00:06:29.908Z,100.00
2018-07-23T00:08:58.305Z,100.00
2018-07-23T00:11:26.588Z,100.00
2018-07-23T00:13:54.883Z,100.00
2018-07-23T00:16:23.153Z,100.00
2018-07-23T00:18:51.405Z,100.00
2018-07-23T00:21:19.885Z,100.00
2018-07-23T00:23:48.139Z,100.00
2018-07-23T00:26:16.342Z,100.00
2018-07-23T00:28:44.745Z,100.00
2018-07-23T00:31:12.999Z,100.00
2018-07-23T00:33:41.269Z,100.00
2018-07-23T00:36:09.506Z,100.00
2018-07-23T00:38:37.801Z,100.00
2018-07-23T00:41:06.030Z,100.00
2018-07-23T00:43:34.393Z,100.00
2018-07-23T00:46:02.603Z,100.00
2018-07-23T00:48:30.864Z,100.00
2018-07-23T00:50:59.107Z,100.00
2018-07-23T00:53:27.384Z,100.00
2018-07-23T00:55:55.623Z,100.00
2018-07-23T00:58:23.872Z,100.00
2018-07-23T01:00:52.176Z,100.00
2018-07-23T01:03:20.483Z,100.00
2018-07-23T01:05:48.737Z,100.00
2018-07-23T01:08:17.195Z,100.00
2018-07-23T01:10:45.548Z,100.00
2018-07-23T01:13:13.792Z,100.00
2018-07-23T01:15:41.978Z,100.00
2018-07-23T01:18:10.249Z,100.00
2018-07-23T01:20:38.498Z,100.00
2018-07-23T01:23:06.800Z,100.00
2018-07-23T01:25:35.072Z,100.00
2018-07-23T01:28:03.515Z,100.00
2018-07-23T01:30:31.816Z,100.00
2018-07-23T01:33:00.053Z,100.00
2018-07-23T01:35:28.329Z,100.00
2018-07-23T01:37:56.730Z,100.00
2018-07-23T01:40:24.972Z,100.00
2018-07-23T01:42:53.214Z,100.00
2018-07-23T01:45:21.460Z,100.00
2018-07-23T01:47:49.690Z,100.00
2018-07-23T01:50:17.945Z,100.00
2018-07-23T01:52:46.182Z,100.00
2018-07-23T01:55:14.449Z,100.00
2018-07-23T01:57:42.708Z,100.00
2018-07-23T02:00:10.934Z,100.00
2018-07-23T02:02:39.311Z,100.00
2018-07-23T02:05:07.641Z,100.00
2018-07-23T02:07:35.877Z,100.00
2018-07-23T02:10:04.234Z,100.00
2018-07-23T02:12:32.564Z,100.00
2018-07-23T02:15:00.839Z,100.00
2018-07-23T02:17:29.083Z,100.00
2018-07-23T02:19:57.273Z,100.00
2018-07-23T02:22:25.648Z,100.00
2018-07-23T02:24:53.861Z,100.00
2018-07-23T02:27:22.178Z,100.00
2018-07-23T02:29:50.533Z,100.00
2018-07-23T02:32:18.790Z,100.00
2018-07-23T02:34:47.027Z,100.00
2018-07-23T02:37:15.291Z,100.00
2018-07-23T02:39:43.521Z,100.00
2018-07-23T02:42:11.766Z,100.00
2018-07-23T02:44:40.342Z,100.00
2018-07-23T02:47:09.272Z,100.00
2018-07-23T02:49:37.760Z,100.00
2018-07-23T02:52:05.993Z,100.00
2018-07-23T02:54:34.319Z,100.00
2018-07-23T02:57:02.864Z,100.00
2018-07-23T02:59:31.227Z,100.00
2018-07-23T03:01:59.415Z,100.00
2018-07-23T03:04:27.712Z,100.00
2018-07-23T03:06:56.061Z,100.00
2018-07-23T03:09:24.342Z,100.00
2018-07-23T03:11:52.618Z,100.00
2018-07-23T03:14:20.888Z,100.00
2018-07-23T03:16:49.422Z,100.00
2018-07-23T03:19:17.693Z,100.00
2018-07-23T03:21:46.037Z,100.00
2018-07-23T03:24:14.302Z,100.00
2018-07-23T03:26:42.550Z,100.00
2018-07-23T03:29:10.972Z,100.00
2018-07-23T03:31:39.180Z,100.00
2018-07-23T03:34:07.433Z,100.00
2018-07-23T03:36:35.664Z,100.00
2018-07-23T03:39:04.696Z,100.00
2018-07-23T03:41:33.084Z,100.00
2018-07-23T03:44:01.332Z,100.00
2018-07-23T03:46:29.607Z,100.00
2018-07-23T03:48:57.983Z,100.00
2018-07-23T03:51:26.311Z,100.00
2018-07-23T03:53:54.888Z,100.00
2018-07-23T03:56:23.137Z,100.00
2018-07-23T03:58:51.559Z,100.00
2018-07-23T04:01:19.825Z,100.00
2018-07-23T04:03:48.189Z,100.00
2018-07-23T04:06:16.489Z,100.00
2018-07-23T04:08:44.772Z,100.00
2018-07-23T04:11:13.122Z,100.00
2018-07-23T04:13:41.489Z,100.00
2018-07-23T04:16:09.802Z,100.00
2018-07-23T04:18:38.145Z,100.00
2018-07-23T04:21:06.482Z,100.00
2018-07-23T04:23:34.723Z,100.00
2018-07-23T04:26:03.137Z,100.00
2018-07-23T04:28:31.353Z,100.00
2018-07-23T04:30:59.610Z,100.00
2018-07-23T04:33:28.026Z,100.00
2018-07-23T04:35:56.347Z,100.00
2018-07-23T04:38:24.541Z,100.00
2018-07-23T04:40:53.019Z,100.00
2018-07-23T04:43:21.468Z,100.00
2018-07-23T04:45:49.675Z,100.00
2018-07-23T04:48:18.104Z,100.00
2018-07-23T04:50:46.329Z,100.00
2018-07-23T04:53:14.758Z,100.00
2018-07-23T04:55:42.983Z,100.00
2018-07-23T04:58:11.180Z,100.00
2018-07-23T05:00:39.440Z,99.41
2018-07-23T05:03:07.651Z,97.58
2018-07-23T05:05:36.046Z,94.81
2018-07-23T05:08:06.055Z,91.27
2018-07-23T05:10:34.328Z,88.57
2018-07-23T05:13:02.569Z,86.03
2018-07-23T05:15:30.876Z,84.78
2018-07-23T05:17:59.101Z,82.51
2018-07-23T05:20:27.425Z,81.29
2018-07-23T05:22:55.920Z,80.52
2018-07-23T05:25:24.113Z,78.89
2018-07-23T05:27:52.788Z,79.85
2018-07-23T05:30:21.027Z,78.88
2018-07-23T05:32:49.240Z,78.42
2018-07-23T05:35:17.659Z,77.54
2018-07-23T05:37:46.032Z,76.14
2018-07-23T05:40:14.275Z,75.07
2018-07-23T05:42:42.490Z,74.69
2018-07-23T05:45:10.760Z,74.61
2018-07-23T05:47:39.099Z,74.06
2018-07-23T05:50:08.121Z,73.66
2018-07-23T05:52:36.327Z,74.34
2018-07-23T05:55:04.649Z,73.09
2018-07-23T05:57:32.926Z,72.68
2018-07-23T06:00:02.099Z,71.84
2018-07-23T06:02:30.274Z,72.34
2018-07-23T06:04:59.612Z,72.92
2018-07-23T06:07:27.819Z,74.13
2018-07-23T06:09:56.186Z,73.53
2018-07-23T06:12:24.376Z,73.71
2018-07-23T06:14:52.646Z,75.06
2018-07-23T06:17:20.859Z,75.22
2018-07-23T06:19:49.059Z,74.89
2018-07-23T06:22:17.342Z,73.50
2018-07-23T06:24:45.615Z,74.70
2018-07-23T06:27:13.835Z,73.46
2018-07-23T06:29:42.148Z,72.16
2018-07-23T06:32:11.019Z,75.00
2018-07-23T06:34:39.255Z,75.21
2018-07-23T06:37:07.519Z,74.59
2018-07-23T06:39:35.828Z,72.71
2018-07-23T06:42:04.194Z,72.77
2018-07-23T06:44:32.478Z,73.60
2018-07-23T06:47:00.715Z,72.65
2018-07-23T06:49:28.903Z,72.86
2018-07-23T06:51:57.258Z,71.41
2018-07-23T06:54:25.511Z,71.90
2018-07-23T06:56:53.796Z,70.76
2018-07-23T06:59:22.122Z,70.67
2018-07-23T07:01:50.380Z,69.62
2018-07-23T07:04:18.600Z,69.37
2018-07-23T07:06:46.835Z,69.64
2018-07-23T07:09:15.183Z,69.13
2018-07-23T07:11:43.484Z,68.34
2018-07-23T07:14:11.811Z,67.81
2018-07-23T07:16:40.058Z,67.24
2018-07-23T07:19:08.353Z,67.80
2018-07-23T07:21:36.656Z,65.49
2018-07-23T07:24:05.021Z,65.96
2018-07-23T07:26:33.224Z,64.76
2018-07-23T07:29:01.440Z,64.71
2018-07-23T07:31:29.779Z,65.54
2018-07-23T07:33:58.134Z,65.18
2018-07-23T07:36:26.459Z,65.35
2018-07-23T07:38:54.768Z,65.59
2018-07-23T07:41:22.995Z,65.06
2018-07-23T07:43:51.247Z,63.70
2018-07-23T07:46:19.562Z,65.15
2018-07-23T07:48:47.824Z,66.04
2018-07-23T07:51:16.099Z,63.29
2018-07-23T07:53:44.305Z,64.46
2018-07-23T07:56:12.573Z,62.09
2018-07-23T07:58:40.784Z,61.83
2018-07-23T08:01:09.008Z,61.36
2018-07-23T08:03:37.243Z,61.48
2018-07-23T08:06:05.593Z,62.52
2018-07-23T08:08:33.810Z,61.55
2018-07-23T08:11:02.090Z,59.24
2018-07-23T08:13:30.482Z,60.45
2018-07-23T08:15:58.754Z,60.40
2018-07-23T08:18:26.901Z,58.43
2018-07-23T08:20:55.397Z,59.14
2018-07-23T08:23:23.627Z,57.93
2018-07-23T08:25:51.856Z,56.91
2018-07-23T08:28:20.129Z,57.28
2018-07-23T08:30:48.416Z,59.07
2018-07-23T08:33:16.608Z,58.15
2018-07-23T08:35:44.858Z,58.35
2018-07-23T08:38:13.055Z,61.76
2018-07-23T08:40:41.301Z,59.20
2018-07-23T08:43:09.677Z,59.38
2018-07-23T08:45:37.918Z,58.68
2018-07-23T08:48:06.180Z,60.77
2018-07-23T08:50:34.504Z,60.24
2018-07-23T08:53:02.744Z,61.40
2018-07-23T08:55:30.972Z,60.32
2018-07-23T08:57:59.216Z,61.44
2018-07-23T09:00:27.758Z,60.07
2018-07-23T09:02:56.054Z,59.50
2018-07-23T09:05:24.246Z,61.53
2018-07-23T09:07:52.467Z,58.90
2018-07-23T09:10:20.739Z,58.16
2018-07-23T09:12:48.941Z,58.78
2018-07-23T09:15:17.477Z,58.67
2018-07-23T09:17:45.733Z,59.44
2018-07-23T09:20:14.034Z,58.53
2018-07-23T09:22:42.359Z,57.76
2018-07-23T09:25:10.724Z,57.61
2018-07-23T09:27:38.999Z,57.22
2018-07-23T09:30:11.676Z,55.92
2018-07-23T09:32:40.011Z,55.00
2018-07-23T09:35:08.295Z,54.49
2018-07-23T09:37:36.534Z,53.90
2018-07-23T09:40:04.845Z,53.53
2018-07-23T09:42:33.284Z,51.40
2018-07-23T09:45:01.599Z,51.39
2018-07-23T09:47:30.003Z,52.07
2018-07-23T09:49:58.236Z,52.26
2018-07-23T09:52:26.527Z,53.30
2018-07-23T09:54:54.769Z,54.80
2018-07-23T09:57:23.039Z,54.03
2018-07-23T09:59:51.421Z,53.91
2018-07-23T10:02:19.653Z,54.98
2018-07-23T10:04:47.969Z,54.35
2018-07-23T10:07:16.423Z,54.72
2018-07-23T10:09:44.654Z,54.50
2018-07-23T10:12:12.844Z,52.67
2018-07-23T10:14:41.605Z,51.80
2018-07-23T10:17:10.182Z,53.61
2018-07-23T10:19:38.444Z,53.90
2018-07-23T10:22:06.729Z,53.83
2018-07-23T10:24:34.912Z,57.37
2018-07-23T10:27:03.134Z,56.13
2018-07-23T10:29:31.373Z,55.42
2018-07-23T10:31:59.668Z,52.20
2018-07-23T10:34:27.907Z,50.93
2018-07-23T10:36:56.206Z,51.97
2018-07-23T10:39:24.395Z,51.01
2018-07-23T10:41:52.594Z,52.12
2018-07-23T10:44:20.824Z,49.18
2018-07-23T10:46:49.116Z,50.98
2018-07-23T10:49:17.435Z,49.81
2018-07-23T10:51:45.700Z,49.68
2018-07-23T10:54:13.913Z,47.84
2018-07-23T10:56:42.232Z,47.00
2018-07-23T10:59:10.463Z,46.90
2018-07-23T11:01:38.720Z,47.73
2018-07-23T11:04:07.074Z,46.38
2018-07-23T11:06:35.348Z,44.16
2018-07-23T11:09:03.715Z,43.62
2018-07-23T11:11:32.057Z,43.50
2018-07-23T11:14:00.332Z,47.14
2018-07-23T11:16:28.605Z,43.93
2018-07-23T11:18:57.043Z,46.32
2018-07-23T11:21:25.286Z,43.02
2018-07-23T11:23:53.543Z,44.15
2018-07-23T11:26:21.966Z,46.63
2018-07-23T11:28:50.166Z,46.64
2018-07-23T11:31:18.512Z,46.04
2018-07-23T11:33:47.001Z,43.15
2018-07-23T11:36:15.316Z,42.70
2018-07-23T11:38:43.584Z,43.23
2018-07-23T11:41:11.826Z,38.65
2018-07-23T11:43:40.093Z,41.11
2018-07-23T11:46:08.396Z,42.02
2018-07-23T11:48:36.584Z,43.39
2018-07-23T11:51:04.850Z,40.75
2018-07-23T11:53:33.184Z,42.19
2018-07-23T11:56:01.332Z,40.89
2018-07-23T11:58:29.578Z,40.42
2018-07-23T12:00:57.913Z,39.85
2018-07-23T12:03:26.264Z,38.58
2018-07-23T12:05:54.540Z,36.44
2018-07-23T12:08:22.805Z,38.94
2018-07-23T12:10:51.020Z,35.07
2018-07-23T12:13:19.301Z,36.13
2018-07-23T12:15:47.598Z,36.83
2018-07-23T12:18:15.862Z,32.65
2018-07-23T12:20:44.072Z,31.06
2018-07-23T12:23:12.327Z,28.46
2018-07-23T12:25:40.524Z,29.12
2018-07-23T12:28:08.976Z,26.30
2018-07-23T12:30:37.360Z,26.62
2018-07-23T12:33:05.868Z,28.12
2018-07-23T12:35:34.191Z,23.85
2018-07-23T12:38:02.825Z,24.52
2018-07-23T12:40:31.183Z,25.58
2018-07-23T12:42:59.455Z,24.88
2018-07-23T12:45:27.751Z,23.70
2018-07-23T12:47:56.025Z,23.34
2018-07-23T12:50:24.413Z,21.16
2018-07-23T12:52:52.867Z,19.78
2018-07-23T12:55:21.239Z,20.52
2018-07-23T12:57:49.980Z,20.56
2018-07-23T13:00:18.320Z,20.79
2018-07-23T13:02:46.612Z,18.58
2018-07-23T13:05:14.884Z,18.50
2018-07-23T13:07:43.076Z,20.14
2018-07-23T13:10:11.533Z,17.47
2018-07-23T13:12:39.749Z,16.09
2018-07-23T13:15:07.983Z,16.41
2018-07-23T13:17:36.318Z,17.64
2018-07-23T13:20:04.809Z,17.93
2018-07-23T13:22:33.263Z,21.08
2018-07-23T13:25:01.831Z,19.06
2018-07-23T13:27:30.158Z,19.14
2018-07-23T13:29:58.370Z,19.34
2018-07-23T13:32:26.687Z,18.58
2018-07-23T13:34:55.195Z,16.19
2018-07-23T13:37:23.540Z,15.92
2018-07-23T13:39:52.592Z,15.42
2018-07-23T13:42:20.954Z,15.94
2018-07-23T13:44:49.238Z,16.67
2018-07-23T13:47:17.530Z,15.26
2018-07-23T13:49:45.819Z,17.61
2018-07-23T13:52:14.125Z,19.12
2018-07-23T13:54:42.377Z,17.66
2018-07-23T13:57:10.779Z,17.13
2018-07-23T13:59:39.061Z,16.85
2018-07-23T14:02:07.428Z,17.17
2018-07-23T14:04:35.729Z,17.52
2018-07-23T14:07:03.944Z,16.92
2018-07-23T14:09:32.238Z,17.80
2018-07-23T14:12:00.519Z,18.76
2018-07-23T14:14:28.822Z,17.65
2018-07-23T14:16:56.992Z,16.95
2018-07-23T14:19:25.580Z,19.00
2018-07-23T14:21:53.764Z,18.24
2018-07-23T14:24:22.016Z,17.97
2018-07-23T14:26:50.214Z,18.73
2018-07-23T14:29:18.563Z,18.06
2018-07-23T14:31:46.790Z,18.70
2018-07-23T14:34:15.268Z,17.43
2018-07-23T14:36:43.670Z,16.00
2018-07-23T14:39:13.435Z,15.47
2018-07-23T14:41:41.927Z,15.87
2018-07-23T14:44:10.423Z,16.62
2018-07-23T14:46:39.460Z,17.19
2018-07-23T14:49:08.141Z,18.61
2018-07-23T14:51:37.068Z,21.03
2018-07-23T14:54:05.800Z,18.37
2018-07-23T14:56:34.244Z,17.76
2018-07-23T14:59:02.596Z,17.77
2018-07-23T15:01:31.344Z,17.17
2018-07-23T15:03:59.694Z,18.35
2018-07-23T15:06:28.074Z,17.90
2018-07-23T15:08:56.396Z,18.45
2018-07-23T15:11:24.756Z,20.05
2018-07-23T15:13:53.086Z,19.90
2018-07-23T15:16:21.658Z,19.41
2018-07-23T15:18:49.951Z,17.95
2018-07-23T15:21:18.320Z,17.60
2018-07-23T15:23:46.586Z,17.66
2018-07-23T15:26:14.915Z,18.44
2018-07-23T15:28:43.204Z,17.59
2018-07-23T15:31:11.524Z,17.74
2018-07-23T15:33:39.799Z,17.59
2018-07-23T15:36:08.274Z,17.16
2018-07-23T15:38:36.743Z,16.85
2018-07-23T15:41:04.908Z,17.60
2018-07-23T15:43:33.208Z,16.81
2018-07-23T15:46:01.779Z,17.28
2018-07-23T15:48:29.871Z,16.83
2018-07-23T15:50:58.314Z,16.38
2018-07-23T15:53:26.650Z,17.16
2018-07-23T15:55:54.911Z,17.39
2018-07-23T15:58:23.180Z,18.16
2018-07-23T16:00:51.525Z,17.49
2018-07-23T16:03:19.832Z,17.33
2018-07-23T16:05:48.067Z,17.52
2018-07-23T16:08:16.313Z,17.10
2018-07-23T16:10:44.736Z,16.61
2018-07-23T16:13:13.187Z,17.11
2018-07-23T16:15:41.461Z,16.46
2018-07-23T16:18:09.685Z,18.03
2018-07-23T16:20:37.951Z,19.64
2018-07-23T16:23:06.161Z,20.15
2018-07-23T16:25:34.328Z,19.35
2018-07-23T16:28:02.745Z,20.38
2018-07-23T16:30:31.010Z,20.43
2018-07-23T16:32:59.257Z,19.75
2018-07-23T16:35:27.496Z,19.76
2018-07-23T16:37:55.755Z,21.00
2018-07-23T16:40:24.051Z,20.83
2018-07-23T16:42:52.439Z,22.26
2018-07-23T16:45:20.697Z,20.18
2018-07-23T16:47:48.967Z,21.43
2018-07-23T16:50:17.245Z,23.33
2018-07-23T16:52:45.503Z,21.76
2018-07-23T16:55:13.721Z,21.54
2018-07-23T16:57:41.960Z,21.95
2018-07-23T17:00:10.235Z,22.99
2018-07-23T17:02:38.493Z,23.29
2018-07-23T17:05:06.771Z,23.92
2018-07-23T17:07:35.123Z,24.28
2018-07-23T17:10:03.447Z,24.65
2018-07-23T17:12:31.760Z,25.56
2018-07-23T17:15:01.155Z,25.18
2018-07-23T17:17:29.477Z,25.54
2018-07-23T17:19:57.701Z,25.68
2018-07-23T17:22:25.962Z,25.43
2018-07-23T17:24:54.351Z,25.45
2018-07-23T17:27:22.849Z,24.81
2018-07-23T17:29:51.098Z,25.00
2018-07-23T17:32:19.332Z,25.06
2018-07-23T17:34:47.686Z,25.27
2018-07-23T17:37:16.010Z,26.02
2018-07-23T17:39:44.311Z,25.09
2018-07-23T17:42:12.759Z,25.97
2018-07-23T17:44:41.063Z,26.67
2018-07-23T17:47:09.446Z,25.87
2018-07-23T17:49:37.733Z,25.99
2018-07-23T17:52:06.089Z,27.65
2018-07-23T17:54:34.298Z,27.53
2018-07-23T17:57:02.545Z,27.43
2018-07-23T17:59:30.922Z,28.21
2018-07-23T18:01:59.209Z,29.21
2018-07-23T18:04:27.679Z,29.93
2018-07-23T18:06:55.913Z,31.43
2018-07-23T18:09:24.235Z,32.38
2018-07-23T18:11:52.539Z,34.67
2018-07-23T18:14:20.816Z,36.66
2018-07-23T18:16:49.060Z,38.29
2018-07-23T18:19:17.470Z,38.86
2018-07-23T18:21:45.751Z,40.03
2018-07-23T18:24:14.161Z,41.20
2018-07-23T18:26:42.438Z,40.60
2018-07-23T18:29:10.651Z,40.32
2018-07-23T18:31:38.941Z,41.69
2018-07-23T18:34:07.402Z,43.30
2018-07-23T18:36:35.773Z,41.99
2018-07-23T18:39:06.281Z,42.55
2018-07-23T18:41:34.515Z,45.52
2018-07-23T18:44:02.739Z,44.28
2018-07-23T18:46:31.091Z,47.57
2018-07-23T18:49:21.664Z,48.36
2018-07-23T18:51:51.718Z,49.01
2018-07-23T18:54:21.258Z,47.18
2018-07-23T18:56:52.355Z,46.33
2018-07-23T18:59:20.670Z,47.36
2018-07-23T19:01:49.880Z,48.32
2018-07-23T19:04:18.414Z,50.96
2018-07-23T19:06:46.901Z,51.09
2018-07-23T19:09:16.634Z,48.92
2018-07-23T19:11:45.934Z,47.33
2018-07-23T19:14:14.845Z,48.00
2018-07-23T19:16:43.416Z,51.75
2018-07-23T19:19:11.806Z,53.69
2018-07-23T19:21:40.080Z,52.81
2018-07-23T19:24:08.334Z,51.68
2018-07-23T19:26:36.759Z,48.30
2018-07-23T19:29:05.258Z,53.65
2018-07-23T19:31:33.552Z,56.10
2018-07-23T19:34:02.753Z,56.31
2018-07-23T19:36:31.206Z,55.98
2018-07-23T19:38:59.759Z,54.63
2018-07-23T19:41:28.605Z,54.29
2018-07-23T19:43:56.926Z,55.79
2018-07-23T19:46:25.170Z,57.20
2018-07-23T19:48:53.667Z,53.19
2018-07-23T19:51:21.873Z,57.34
2018-07-23T19:53:50.141Z,55.50
2018-07-23T19:56:18.423Z,49.57
2018-07-23T19:58:46.747Z,50.93
2018-07-23T20:01:14.977Z,51.21
2018-07-23T20:03:43.399Z,51.83
2018-07-23T20:06:11.950Z,52.88
2018-07-23T20:08:40.249Z,53.07
2018-07-23T20:11:08.809Z,54.50
2018-07-23T20:13:37.021Z,55.91
2018-07-23T20:16:05.385Z,56.54
2018-07-23T20:18:33.726Z,58.01
2018-07-23T20:21:03.147Z,57.99
2018-07-23T20:23:31.417Z,58.82
2018-07-23T20:25:59.791Z,59.47
2018-07-23T20:28:28.014Z,61.12
2018-07-23T20:30:56.272Z,61.51
2018-07-23T20:33:25.391Z,62.56
2018-07-23T20:35:53.651Z,64.68
2018-07-23T20:38:21.967Z,63.76
2018-07-23T20:40:50.251Z,64.62
2018-07-23T20:43:18.704Z,64.91
2018-07-23T20:45:46.969Z,65.42
2018-07-23T20:48:15.165Z,66.20
2018-07-23T20:50:43.518Z,68.01
2018-07-23T20:53:11.809Z,68.99
2018-07-23T20:55:40.026Z,68.08
2018-07-23T20:58:08.401Z,69.39
2018-07-23T21:00:36.963Z,69.72
2018-07-23T21:03:06.067Z,70.28
2018-07-23T21:05:34.564Z,70.48
2018-07-23T21:08:03.011Z,70.88
2018-07-23T21:10:31.328Z,72.16
2018-07-23T21:12:59.724Z,71.42
2018-07-23T21:15:28.198Z,72.51
2018-07-23T21:17:56.683Z,72.87
2018-07-23T21:20:25.146Z,72.47
2018-07-23T21:22:53.472Z,72.82
2018-07-23T21:25:21.903Z,73.36
2018-07-23T21:27:50.254Z,75.73
2018-07-23T21:30:19.583Z,75.36
2018-07-23T21:32:48.007Z,75.32
2018-07-23T21:35:16.440Z,75.89
2018-07-23T21:37:44.788Z,77.10
2018-07-23T21:40:13.246Z,75.84
2018-07-23T21:42:41.716Z,76.83
2018-07-23T21:45:10.671Z,77.59
2018-07-23T21:47:39.152Z,78.32
2018-07-23T21:50:08.506Z,79.12
2018-07-23T21:52:37.040Z,79.50
2018-07-23T21:55:06.016Z,76.65
2018-07-23T21:57:34.426Z,75.38
2018-07-23T22:00:02.748Z,74.96
2018-07-23T22:02:31.101Z,75.58
2018-07-23T22:04:59.482Z,75.45
2018-07-23T22:07:27.991Z,76.51
2018-07-23T22:09:56.439Z,76.07
2018-07-23T22:12:24.854Z,77.21
2018-07-23T22:14:53.173Z,78.66
2018-07-23T22:17:21.735Z,78.59
2018-07-23T22:19:50.100Z,79.20
2018-07-23T22:22:18.487Z,79.46
2018-07-23T22:24:46.982Z,80.84
2018-07-23T22:27:15.244Z,80.80
2018-07-23T22:29:43.455Z,82.12
2018-07-23T22:32:11.734Z,81.69
2018-07-23T22:34:39.963Z,84.42
2018-07-23T22:37:08.213Z,82.21
2018-07-23T22:39:36.613Z,82.76
2018-07-23T22:42:05.129Z,83.62
2018-07-23T22:44:33.327Z,83.13
2018-07-23T22:47:01.556Z,85.52
2018-07-23T22:49:29.962Z,84.14
2018-07-23T22:51:58.296Z,83.72
2018-07-23T22:54:26.531Z,85.92
2018-07-23T22:56:54.817Z,83.48
2018-07-23T22:59:23.232Z,85.56
2018-07-23T23:01:51.479Z,86.03
2018-07-23T23:04:19.757Z,86.42
2018-07-23T23:06:48.065Z,86.91
2018-07-23T23:09:16.523Z,86.91
2018-07-23T23:11:44.830Z,87.54
2018-07-23T23:14:13.150Z,87.87
2018-07-23T23:16:41.581Z,91.46
2018-07-23T23:19:09.879Z,88.96
2018-07-23T23:21:38.339Z,90.10
2018-07-23T23:24:06.572Z,88.83
2018-07-23T23:26:34.919Z,89.87
2018-07-23T23:29:03.181Z,90.40
2018-07-23T23:31:31.617Z,90.18
2018-07-23T23:33:59.919Z,90.39
2018-07-23T23:36:28.153Z,91.43
2018-07-23T23:38:56.645Z,90.17
2018-07-23T23:41:24.871Z,90.59
2018-07-23T23:43:53.163Z,90.30
2018-07-23T23:46:21.440Z,91.23
2018-07-23T23:48:49.702Z,90.29
2018-07-23T23:53:47.165Z,91.98
2018-07-23T23:56:15.440Z,92.90
2018-07-23T23:58:43.693Z,92.47
